createdAt,value
2019-03-30T00:01:39.310Z,102624.36
2019-03-30T00:04:23.769Z,102591.73
2019-03-30T00:07:08.078Z,102585.83
2019-03-30T00:09:52.512Z,102611.50
2019-03-30T00:12:38.185Z,102582.47
2019-03-30T00:15:22.162Z,102610.45
2019-03-30T00:18:07.591Z,102605.30
2019-03-30T00:20:52.280Z,102579.33
2019-03-30T00:23:36.661Z,102577.83
2019-03-30T00:26:20.961Z,102565.14
2019-03-30T00:29:06.455Z,102564.05
2019-03-30T00:31:52.301Z,102588.80
2019-03-30T00:34:36.914Z,102559.33
2019-03-30T00:37:22.889Z,102560.95
2019-03-30T00:40:06.868Z,102558.50
2019-03-30T00:42:52.728Z,102579.25
2019-03-30T00:45:37.034Z,102544.70
2019-03-30T00:48:22.400Z,102544.22
2019-03-30T00:51:07.305Z,102563.83
2019-03-30T00:53:41.539Z,102565.45
2019-03-30T00:56:31.993Z,102546.54
2019-03-30T00:59:15.802Z,102555.87
2019-03-30T01:02:00.377Z,102554.13
2019-03-30T01:04:46.565Z,102534.61
2019-03-30T01:07:32.646Z,102548.53
2019-03-30T01:10:17.992Z,102556.17
2019-03-30T01:13:02.056Z,102528.16
2019-03-30T01:15:46.415Z,102545.98
2019-03-30T01:18:30.560Z,102534.65
2019-03-30T01:21:16.123Z,102518.19
2019-03-30T01:24:01.062Z,102542.09
2019-03-30T01:26:49.057Z,102522.98
2019-03-30T01:29:33.313Z,102524.65
2019-03-30T01:32:17.750Z,102514.05
2019-03-30T01:35:02.317Z,102513.20
2019-03-30T01:37:35.568Z,102533.10
2019-03-30T01:40:19.854Z,102529.56
2019-03-30T01:43:03.834Z,102529.03
2019-03-30T01:45:50.005Z,102528.27
2019-03-30T01:48:34.426Z,102503.42
2019-03-30T01:51:19.080Z,102500.38
2019-03-30T01:54:03.672Z,102497.33
2019-03-30T01:56:47.820Z,102496.60
2019-03-30T01:59:32.384Z,102499.28
2019-03-30T02:02:16.309Z,102527.82
2019-03-30T02:05:00.730Z,102521.66
2019-03-30T02:07:46.350Z,102527.26
2019-03-30T02:13:43.750Z,102512.58
2019-03-30T02:16:27.586Z,102480.45
2019-03-30T02:19:12.255Z,102478.80
2019-03-30T02:21:55.409Z,102473.84
2019-03-30T02:24:39.535Z,102471.39
2019-03-30T02:27:23.527Z,102465.72
2019-03-30T02:30:08.851Z,102468.00
2019-03-30T02:32:53.499Z,102477.81
2019-03-30T02:35:38.246Z,102463.36
2019-03-30T02:38:22.462Z,102463.03
2019-03-30T02:41:06.904Z,102457.36
2019-03-30T02:43:41.241Z,102477.41
2019-03-30T02:46:26.604Z,102451.22
2019-03-30T02:49:10.968Z,102454.23
2019-03-30T02:51:56.318Z,102452.36
2019-03-30T02:54:40.898Z,102449.19
2019-03-30T02:57:15.185Z,102470.41
2019-03-30T02:59:59.609Z,102444.00
2019-03-30T03:02:44.268Z,102439.98
2019-03-30T03:05:29.577Z,102440.34
2019-03-30T03:08:13.815Z,102455.80
2019-03-30T03:10:57.250Z,102456.66
2019-03-30T03:13:42.198Z,102451.31
2019-03-30T03:16:27.697Z,102449.48
2019-03-30T03:19:11.907Z,102433.94
2019-03-30T03:21:56.553Z,102447.73
2019-03-30T03:24:40.809Z,102442.09
2019-03-30T03:27:24.675Z,102412.92
2019-03-30T03:30:09.395Z,102414.45
2019-03-30T03:32:54.421Z,102433.57
2019-03-30T03:35:39.062Z,102403.13
2019-03-30T03:38:12.157Z,102428.41
2019-03-30T03:40:58.543Z,102426.70
2019-03-30T03:43:43.433Z,102407.28
2019-03-30T03:46:28.299Z,102422.79
2019-03-30T03:49:12.655Z,102425.19
2019-03-30T03:51:56.760Z,102417.11
2019-03-30T03:54:40.879Z,102394.12
2019-03-30T03:57:25.409Z,102406.17
2019-03-30T04:00:10.047Z,102382.94
2019-03-30T04:02:55.907Z,102389.28
2019-03-30T04:05:42.671Z,102404.98
2019-03-30T04:08:27.295Z,102370.50
2019-03-30T04:11:12.258Z,102367.95
2019-03-30T04:13:56.517Z,102363.88
2019-03-30T04:16:41.852Z,102361.45
2019-03-30T04:19:26.088Z,102355.25
2019-03-30T04:22:10.936Z,102383.61
2019-03-30T04:24:59.233Z,102377.38
2019-03-30T04:27:43.151Z,102358.13
2019-03-30T04:30:27.478Z,102341.89
2019-03-30T04:33:11.520Z,102366.05
2019-03-30T04:35:56.686Z,102334.34
2019-03-30T04:38:41.496Z,102358.63
2019-03-30T04:41:26.208Z,102321.98
2019-03-30T04:44:10.365Z,102354.82
2019-03-30T04:46:55.818Z,102327.06
2019-03-30T04:49:40.239Z,102350.53
2019-03-30T04:52:26.428Z,102345.77
2019-03-30T04:55:11.048Z,102322.72
2019-03-30T04:57:57.735Z,102344.30
2019-03-30T05:00:42.979Z,102335.81
2019-03-30T05:03:28.609Z,102311.86
2019-03-30T05:06:12.992Z,102308.98
2019-03-30T05:08:57.457Z,102309.27
2019-03-30T05:11:41.612Z,102305.59
2019-03-30T05:14:26.363Z,102330.05
2019-03-30T05:17:11.208Z,102329.55
2019-03-30T05:19:55.992Z,102305.92
2019-03-30T05:22:41.489Z,102330.73
2019-03-30T05:25:26.161Z,102326.28
2019-03-30T05:28:11.476Z,102322.70
2019-03-30T05:30:56.036Z,102296.02
2019-03-30T05:33:29.485Z,102327.41
2019-03-30T05:36:14.004Z,102324.22
2019-03-30T05:38:58.234Z,102301.06
2019-03-30T05:41:42.687Z,102325.34
2019-03-30T05:44:27.580Z,102306.05
2019-03-30T05:47:12.596Z,102303.41
2019-03-30T05:49:57.810Z,102310.42
2019-03-30T05:52:42.853Z,102303.70
2019-03-30T05:55:27.510Z,102330.86
2019-03-30T05:58:12.200Z,102325.83
2019-03-30T06:00:57.613Z,102298.33
2019-03-30T06:03:42.538Z,102314.02
2019-03-30T06:06:27.698Z,102296.90
2019-03-30T06:09:13.453Z,102317.19
2019-03-30T06:11:58.026Z,102292.81
2019-03-30T06:14:42.158Z,102284.71
2019-03-30T06:17:28.816Z,102282.95
2019-03-30T06:20:13.675Z,102308.92
2019-03-30T06:22:58.849Z,102305.50
2019-03-30T06:25:43.632Z,102301.09
2019-03-30T06:28:27.772Z,102273.22
2019-03-30T06:31:12.308Z,102282.95
2019-03-30T06:33:56.722Z,102293.77
2019-03-30T06:36:41.477Z,102274.50
2019-03-30T06:39:26.635Z,102287.11
2019-03-30T06:42:11.583Z,102286.38
2019-03-30T06:44:55.563Z,102289.59
2019-03-30T06:47:28.695Z,102289.70
2019-03-30T06:50:12.756Z,102265.71
2019-03-30T06:52:59.100Z,102275.13
2019-03-30T06:55:43.931Z,102289.84
2019-03-30T06:58:30.752Z,102294.05
2019-03-30T07:01:14.398Z,102270.64
2019-03-30T07:03:58.541Z,102283.84
2019-03-30T07:06:43.112Z,102292.20
2019-03-30T07:09:27.973Z,102269.48
2019-03-30T07:12:12.152Z,102291.97
2019-03-30T07:14:56.771Z,102275.03
2019-03-30T07:17:46.294Z,102265.41
2019-03-30T07:20:31.061Z,102269.70
2019-03-30T07:23:16.860Z,102292.67
2019-03-30T07:26:01.561Z,102284.09
2019-03-30T07:28:47.317Z,102265.03
2019-03-30T07:31:21.485Z,102281.31
2019-03-30T07:34:05.995Z,102276.59
2019-03-30T07:36:51.675Z,102256.30
2019-03-30T07:39:40.445Z,102258.09
2019-03-30T07:42:25.211Z,102251.09
2019-03-30T07:45:11.953Z,102272.36
2019-03-30T07:47:56.643Z,102248.27
2019-03-30T07:50:30.112Z,102268.85
2019-03-30T07:53:25.757Z,102236.67
2019-03-30T07:56:08.318Z,102232.93
2019-03-30T07:58:47.512Z,102237.82
2019-03-30T08:01:31.997Z,102216.69
2019-03-30T08:04:16.169Z,102242.98
2019-03-30T08:07:00.642Z,102220.42
2019-03-30T08:09:45.167Z,102232.95
2019-03-30T08:12:18.358Z,102225.16
2019-03-30T08:15:06.855Z,102231.62
2019-03-30T08:17:51.511Z,102225.54
2019-03-30T08:20:37.805Z,102205.56
2019-03-30T08:26:24.780Z,102222.64
2019-03-30T08:28:59.955Z,102220.28
2019-03-30T08:34:46.529Z,102195.57
2019-03-30T08:37:31.137Z,102199.02
2019-03-30T08:40:17.178Z,102225.49
2019-03-30T08:49:04.876Z,102218.30
2019-03-30T08:51:49.785Z,102189.44
2019-03-30T08:54:33.783Z,102181.00
2019-03-30T08:57:18.050Z,102182.89
2019-03-30T09:00:03.247Z,102172.92
2019-03-30T09:05:59.493Z,102192.92
2019-03-30T09:08:43.876Z,102192.06
2019-03-30T09:14:30.111Z,102166.91
2019-03-30T09:17:14.633Z,102181.91
2019-03-30T09:20:00.614Z,102164.45
2019-03-30T09:22:44.709Z,102161.31
2019-03-30T09:25:29.151Z,102179.34
2019-03-30T09:28:13.208Z,102165.78
2019-03-30T09:30:58.547Z,102183.05
2019-03-30T09:39:59.980Z,102179.35
2019-03-30T09:42:45.251Z,102184.03
2019-03-30T09:45:29.834Z,102181.00
2019-03-30T09:51:25.414Z,102151.58
2019-03-30T09:54:22.855Z,102141.73
2019-03-30T09:56:56.540Z,102159.34
2019-03-30T09:59:40.864Z,102134.69
2019-03-30T10:02:25.782Z,102144.15
2019-03-30T10:05:10.307Z,102148.22
2019-03-30T10:07:54.641Z,102140.75
2019-03-30T10:10:39.199Z,102119.50
2019-03-30T10:13:23.185Z,102131.66
2019-03-30T10:16:07.189Z,102106.91
2019-03-30T10:18:51.146Z,102099.80
2019-03-30T10:21:36.447Z,102098.09
2019-03-30T10:24:21.273Z,102113.52
2019-03-30T10:27:05.489Z,102091.14
2019-03-30T10:33:00.536Z,102107.12
2019-03-30T10:35:50.646Z,102092.62
2019-03-30T10:38:35.403Z,102101.65
2019-03-30T10:41:20.064Z,102101.97
2019-03-30T10:47:16.186Z,102077.27
2019-03-30T10:50:01.137Z,102065.31
2019-03-30T10:52:46.319Z,102092.32
2019-03-30T10:55:33.316Z,102070.18
2019-03-30T10:58:21.974Z,102054.91
2019-03-30T11:01:06.926Z,102069.28
2019-03-30T11:07:03.239Z,102057.36
2019-03-30T11:13:25.449Z,102034.86
2019-03-30T11:16:25.682Z,102047.73
2019-03-30T11:19:09.774Z,102022.14
2019-03-30T11:21:58.076Z,102016.11
2019-03-30T11:30:56.434Z,102030.15
2019-03-30T11:40:01.397Z,101999.09
2019-03-30T11:46:12.453Z,101996.41
2019-03-30T11:52:02.264Z,102003.31
2019-03-30T12:07:34.307Z,101966.36
2019-03-30T12:10:19.502Z,101984.02
2019-03-30T12:13:11.989Z,101985.33
2019-03-30T12:18:43.105Z,101986.81
2019-03-30T12:21:29.326Z,101986.73
2019-03-30T12:27:17.720Z,101984.52
2019-03-30T12:30:04.737Z,101969.50
2019-03-30T12:32:51.382Z,101947.59
2019-03-30T12:35:35.618Z,101949.63
2019-03-30T12:38:26.472Z,101940.84
2019-03-30T12:41:23.569Z,101930.80
2019-03-30T12:44:11.879Z,101936.64
2019-03-30T12:46:57.228Z,101943.55
2019-03-30T12:56:04.057Z,101905.91
2019-03-30T12:58:48.818Z,101911.39
2019-03-30T13:04:40.981Z,101915.10
2019-03-30T13:07:25.589Z,101921.41
2019-03-30T13:10:12.244Z,101918.66
2019-03-30T13:13:00.954Z,101919.62
2019-03-30T13:15:45.505Z,101923.57
2019-03-30T13:18:32.851Z,101896.05
2019-03-30T13:21:17.003Z,101893.92
2019-03-30T13:27:07.795Z,101889.55
2019-03-30T13:30:11.980Z,101890.45
2019-03-30T13:36:10.680Z,101910.19
2019-03-30T13:38:54.033Z,101896.80
2019-03-30T13:41:38.578Z,101905.70
2019-03-30T13:44:22.946Z,101887.06
2019-03-30T13:47:07.055Z,101903.84
2019-03-30T13:49:51.391Z,101900.94
2019-03-30T13:52:40.633Z,101881.80
2019-03-30T13:55:24.748Z,101904.73
2019-03-30T13:58:09.473Z,101892.81
2019-03-30T14:00:54.049Z,101895.25
2019-03-30T14:03:38.448Z,101888.70
2019-03-30T14:06:12.773Z,101893.89
2019-03-30T14:08:59.493Z,101873.64
2019-03-30T14:11:44.385Z,101885.92
2019-03-30T14:14:29.098Z,101886.69
2019-03-30T14:17:14.219Z,101864.75
2019-03-30T14:20:00.505Z,101866.97
2019-03-30T14:22:44.714Z,101891.18
2019-03-30T14:25:32.007Z,101890.97
2019-03-30T14:28:18.857Z,101864.13
2019-03-30T14:31:03.977Z,101863.31
2019-03-30T14:33:49.385Z,101874.27
2019-03-30T14:36:33.503Z,101861.52
2019-03-30T14:39:18.742Z,101856.58
2019-03-30T14:42:03.866Z,101874.77
2019-03-30T14:44:50.640Z,101849.05
2019-03-30T14:47:36.279Z,101866.20
2019-03-30T14:50:21.400Z,101844.69
2019-03-30T14:52:56.428Z,101860.91
2019-03-30T14:55:41.243Z,101858.38
2019-03-30T14:58:26.641Z,101858.83
2019-03-30T15:01:11.213Z,101849.28
2019-03-30T15:03:56.061Z,101848.14
2019-03-30T15:06:40.656Z,101847.70
2019-03-30T15:09:24.957Z,101825.91
2019-03-30T15:12:10.822Z,101850.16
2019-03-30T15:14:55.437Z,101830.58
2019-03-30T15:17:41.876Z,101824.39
2019-03-30T15:20:35.490Z,101845.48
2019-03-30T15:23:19.986Z,101829.28
2019-03-30T15:26:04.515Z,101823.52
2019-03-30T15:28:48.585Z,101821.24
2019-03-30T15:31:33.236Z,101808.38
2019-03-30T15:34:17.628Z,101817.61
2019-03-30T15:37:01.995Z,101812.55
2019-03-30T15:39:46.803Z,101829.25
2019-03-30T15:42:30.886Z,101814.78
2019-03-30T15:45:04.293Z,101824.76
2019-03-30T15:47:48.863Z,101807.73
2019-03-30T15:50:33.446Z,101816.59
2019-03-30T15:53:18.754Z,101823.12
2019-03-30T15:55:52.172Z,101828.88
2019-03-30T15:58:36.243Z,101807.30
2019-03-30T16:01:20.655Z,101808.20
2019-03-30T16:04:05.506Z,101803.67
2019-03-30T16:06:51.761Z,101804.45
2019-03-30T16:09:36.831Z,101797.28
2019-03-30T16:12:21.127Z,101825.45
2019-03-30T16:15:05.510Z,101806.14
2019-03-30T16:17:50.279Z,101826.90
2019-03-30T16:20:34.923Z,101802.24
2019-03-30T16:23:19.457Z,101804.42
2019-03-30T16:26:04.068Z,101822.11
2019-03-30T16:28:48.488Z,101822.12
2019-03-30T16:31:32.419Z,101825.34
2019-03-30T16:34:18.678Z,101827.11
2019-03-30T16:37:04.780Z,101809.68
2019-03-30T16:39:49.561Z,101853.62
2019-03-30T16:42:34.033Z,101843.63
2019-03-30T16:45:18.553Z,101872.41
2019-03-30T16:48:03.735Z,101847.06
2019-03-30T16:50:47.590Z,101870.13
2019-03-30T16:53:31.791Z,101872.52
2019-03-30T16:56:05.984Z,101875.14
2019-03-30T16:58:50.964Z,101854.83
2019-03-30T17:01:24.034Z,101869.91
2019-03-30T17:04:12.419Z,101860.14
2019-03-30T17:06:56.869Z,101861.88
2019-03-30T17:09:40.856Z,101871.18
2019-03-30T17:12:26.885Z,101871.45
2019-03-30T17:15:11.036Z,101894.02
2019-03-30T17:17:56.058Z,101876.28
2019-03-30T17:20:40.397Z,101900.12
2019-03-30T17:23:25.435Z,101878.79
2019-03-30T17:26:10.640Z,101899.86
2019-03-30T17:28:54.809Z,101909.16
2019-03-30T17:31:41.389Z,101910.38
2019-03-30T17:34:27.191Z,101906.41
2019-03-30T17:37:14.514Z,101886.28
2019-03-30T17:39:48.120Z,101916.09
2019-03-30T17:42:32.712Z,101889.66
2019-03-30T17:45:17.976Z,101895.48
2019-03-30T17:48:02.572Z,101897.19
2019-03-30T17:50:46.757Z,101904.20
2019-03-30T17:53:31.398Z,101929.49
2019-03-30T17:56:15.723Z,101911.56
2019-03-30T17:59:00.532Z,101928.03
2019-03-30T18:01:45.399Z,101928.31
2019-03-30T18:04:29.836Z,101914.27
2019-03-30T18:07:14.159Z,101950.24
2019-03-30T18:09:58.919Z,101921.13
2019-03-30T18:12:43.570Z,101918.50
2019-03-30T18:15:28.389Z,101941.38
2019-03-30T18:18:13.165Z,101919.99
2019-03-30T18:20:46.951Z,101942.20
2019-03-30T18:23:31.638Z,101924.77
2019-03-30T18:26:16.324Z,101925.85
2019-03-30T18:29:00.579Z,101951.33
2019-03-30T18:31:44.872Z,101951.38
2019-03-30T18:34:29.089Z,101954.55
2019-03-30T18:37:14.060Z,101943.62
2019-03-30T18:39:58.461Z,101945.94
2019-03-30T18:42:32.015Z,101967.95
2019-03-30T18:48:21.232Z,101969.57
2019-03-30T18:51:05.769Z,101969.30
2019-03-30T18:53:50.283Z,101973.88
2019-03-30T18:56:34.988Z,101973.05
2019-03-30T18:59:19.585Z,101980.80
2019-03-30T19:02:03.611Z,101981.66
2019-03-30T19:04:48.291Z,102007.13
2019-03-30T19:07:33.281Z,101986.12
2019-03-30T19:10:17.157Z,101984.17
2019-03-30T19:13:01.610Z,102013.94
2019-03-30T19:15:45.550Z,102019.23
2019-03-30T19:18:29.818Z,102015.78
2019-03-30T19:21:15.292Z,102021.09
2019-03-30T19:23:59.516Z,102020.47
2019-03-30T19:26:46.871Z,102014.91
2019-03-30T19:29:31.143Z,101994.81
2019-03-30T19:32:15.547Z,102000.70
2019-03-30T19:35:00.561Z,102007.39
2019-03-30T19:37:44.757Z,102010.86
2019-03-30T19:40:28.615Z,102025.11
2019-03-30T19:43:12.488Z,102025.75
2019-03-30T19:45:56.946Z,102003.55
2019-03-30T19:48:41.368Z,102009.45
2019-03-30T19:51:25.524Z,102015.16
2019-03-30T19:54:09.964Z,102003.74
2019-03-30T19:56:53.827Z,102022.35
2019-03-30T19:59:37.803Z,102018.56
2019-03-30T20:02:22.444Z,102019.08
2019-03-30T20:05:07.448Z,102025.63
2019-03-30T20:07:52.312Z,102030.70
2019-03-30T20:10:36.743Z,102027.25
2019-03-30T20:13:21.371Z,102050.30
2019-03-30T20:16:05.653Z,102031.32
2019-03-30T20:18:50.420Z,102037.17
2019-03-30T20:21:35.315Z,102035.05
2019-03-30T20:24:19.727Z,102056.14
2019-03-30T20:27:04.991Z,102057.45
2019-03-30T20:29:49.763Z,102024.12
2019-03-30T20:32:34.098Z,102048.98
2019-03-30T20:35:18.722Z,102032.44
2019-03-30T20:38:03.648Z,102032.42
2019-03-30T20:40:48.008Z,102060.86
2019-03-30T20:43:32.384Z,102057.94
2019-03-30T20:46:18.250Z,102055.66
2019-03-30T20:49:02.145Z,102028.83
2019-03-30T20:51:45.941Z,102031.60
2019-03-30T20:54:30.796Z,102034.86
2019-03-30T20:57:15.041Z,102033.06
2019-03-30T20:59:59.262Z,102034.71
2019-03-30T21:02:43.951Z,102061.32
2019-03-30T21:05:28.584Z,102034.98
2019-03-30T21:08:12.463Z,102056.05
2019-03-30T21:10:56.732Z,102046.05
2019-03-30T21:13:41.057Z,102048.14
2019-03-30T21:16:25.067Z,102069.38
2019-03-30T21:19:09.545Z,102051.25
2019-03-30T21:21:54.352Z,102074.75
2019-03-30T21:24:38.457Z,102061.08
2019-03-30T21:27:20.518Z,102067.94
2019-03-30T21:30:05.499Z,102051.54
2019-03-30T21:32:52.057Z,102051.54
2019-03-30T21:35:36.813Z,102049.07
2019-03-30T21:38:21.388Z,102066.24
2019-03-30T21:40:54.619Z,102070.78
2019-03-30T21:43:39.198Z,102051.95
2019-03-30T21:46:12.317Z,102072.27
2019-03-30T21:48:56.705Z,102074.11
2019-03-30T21:51:40.916Z,102053.97
2019-03-30T21:54:25.993Z,102085.23
2019-03-30T21:57:10.499Z,102081.51
2019-03-30T22:00:08.709Z,102056.31
2019-03-30T22:02:41.843Z,102080.73
2019-03-30T22:05:26.160Z,102080.84
2019-03-30T22:08:10.026Z,102068.06
2019-03-30T22:10:53.915Z,102063.06
2019-03-30T22:13:38.169Z,102073.84
2019-03-30T22:16:22.656Z,102063.39
2019-03-30T22:19:07.655Z,102092.31
2019-03-30T22:21:52.757Z,102090.86
2019-03-30T22:24:37.423Z,102092.69
2019-03-30T22:27:21.389Z,102066.83
2019-03-30T22:30:05.735Z,102070.65
2019-03-30T22:32:50.051Z,102070.03
2019-03-30T22:35:34.726Z,102099.20
2019-03-30T22:38:20.853Z,102105.39
2019-03-30T22:41:05.763Z,102103.37
2019-03-30T22:43:49.720Z,102080.55
2019-03-30T22:46:37.531Z,102107.47
2019-03-30T22:49:33.566Z,102110.14
2019-03-30T22:52:20.345Z,102077.72
2019-03-30T22:55:03.829Z,102107.18
2019-03-30T22:57:48.415Z,102107.81
2019-03-30T23:00:52.063Z,102104.48
2019-03-30T23:03:36.708Z,102083.84
2019-03-30T23:06:21.058Z,102080.58
2019-03-30T23:09:06.593Z,102087.50
2019-03-30T23:11:50.799Z,102083.17
2019-03-30T23:14:24.159Z,102115.94
2019-03-30T23:17:08.468Z,102088.91
2019-03-30T23:19:52.634Z,102114.87
2019-03-30T23:22:37.050Z,102086.79
2019-03-30T23:25:21.282Z,102088.23
2019-03-30T23:28:05.397Z,102113.56
2019-03-30T23:30:54.522Z,102089.50
2019-03-30T23:33:37.521Z,102122.74
2019-03-30T23:36:23.246Z,102093.58
2019-03-30T23:39:08.123Z,102096.28
2019-03-30T23:41:53.241Z,102120.31
2019-03-30T23:44:37.590Z,102106.41
2019-03-30T23:47:22.864Z,102104.12
2019-03-30T23:50:06.752Z,102130.40
2019-03-30T23:52:51.517Z,102126.78
2019-03-30T23:55:36.286Z,102121.20
2019-03-30T23:58:21.498Z,102100.77
